Time;durP1;ratioP1;P1;durP2;ratioP2;P2;SDS_P1;SDS_P2;PMS_P1;PMS_P2;Temp;Humidity;BMP_temperature;BMP_pressure;BME280_temperature;BME280_humidity;BME280_pressure;Samples;Min_cycle;Max_cycle;Signal;HPM_P1;HPM_P2
2022/09/02 00:00:46;;;;;;;67.70;8.73;;;20.20;1.00;;;;;;5081390;28;20418;-82
2022/09/02 00:03:13;;;;;;;67.60;7.60;;;20.20;1.00;;;;;;5081781;28;20449;-83
2022/09/02 00:05:39;;;;;;;68.03;7.97;;;20.20;1.00;;;;;;5064259;28;20987;-82
2022/09/02 00:08:06;;;;;;;67.63;6.67;;;20.20;1.00;;;;;;5064263;28;20498;-83
2022/09/02 00:10:41;;;;;;;68.33;7.60;;;20.30;1.00;;;;;;5082468;28;20415;-83
2022/09/02 00:13:09;;;;;;;67.97;7.60;;;20.30;1.00;;;;;;5082455;28;20384;-83
2022/09/02 00:15:35;;;;;;;68.40;7.07;;;20.10;1.00;;;;;;5064086;28;20416;-83
2022/09/02 00:18:02;;;;;;;71.30;8.40;;;20.10;1.00;;;;;;5081569;28;20447;-83
2022/09/02 00:20:29;;;;;;;66.63;6.50;;;20.00;1.00;;;;;;5081800;28;20160;-83
2022/09/02 00:22:56;;;;;;;68.33;6.13;;;20.00;1.00;;;;;;5082151;28;20399;-83
2022/09/02 00:25:22;;;;;;;67.47;7.27;;;19.90;1.00;;;;;;5064101;28;20495;-83
2022/09/02 00:27:48;;;;;;;68.00;5.67;;;19.70;1.00;;;;;;5063592;28;20418;-83
2022/09/02 00:30:15;;;;;;;68.20;5.47;;;19.60;1.00;;;;;;5081372;28;20441;-83
2022/09/02 00:32:41;;;;;;;67.00;5.37;;;19.50;1.00;;;;;;5080109;28;20430;-83
2022/09/02 00:35:08;;;;;;;67.27;6.33;;;19.60;1.00;;;;;;5061999;28;20435;-83
2022/09/02 00:37:34;;;;;;;66.80;5.30;;;19.60;1.00;;;;;;5080197;28;20482;-83
2022/09/02 00:40:01;;;;;;;68.30;4.40;;;19.50;1.00;;;;;;5061934;28;20404;-83
2022/09/02 00:42:26;;;;;;;66.40;4.43;;;19.50;1.00;;;;;;5079888;28;20403;-83
2022/09/02 00:44:52;;;;;;;66.07;3.77;;;19.50;1.00;;;;;;5080345;28;20410;-83
2022/09/02 00:47:19;;;;;;;65.77;3.97;;;19.40;1.00;;;;;;5061926;28;20201;-83
2022/09/02 00:49:49;;;;;;;66.20;3.70;;;19.50;1.00;;;;;;5080261;28;20942;-83
2022/09/02 00:52:46;;;;;;;66.80;4.10;;;19.50;1.00;;;;;;5080396;28;20877;-83
2022/09/02 00:55:15;;;;;;;69.00;3.70;;;19.60;1.00;;;;;;5061741;28;20408;-83
2022/09/02 00:57:47;;;;;;;66.40;3.90;;;19.60;1.00;;;;;;5061832;28;20450;-83
2022/09/02 01:00:22;;;;;;;66.63;3.83;;;19.50;1.00;;;;;;5081072;28;20388;-83
2022/09/02 01:03:01;;;;;;;67.67;3.30;;;19.30;1.00;;;;;;5063293;28;20770;-83
2022/09/02 01:05:30;;;;;;;67.27;4.20;;;19.30;1.00;;;;;;5081306;28;20866;-83
2022/09/02 01:07:57;;;;;;;67.70;3.73;;;19.30;1.00;;;;;;5081767;28;20412;-83
2022/09/02 01:10:26;;;;;;;65.77;3.57;;;19.40;1.00;;;;;;5081198;28;20429;-83
2022/09/02 01:13:05;;;;;;;66.20;3.50;;;19.30;1.00;;;;;;5080199;28;20399;-83
2022/09/02 01:15:35;;;;;;;68.93;3.20;;;19.20;1.00;;;;;;5079685;28;20384;-83
2022/09/02 01:18:03;;;;;;;69.37;3.80;;;19.10;1.00;;;;;;5079963;28;20876;-83
2022/09/02 01:20:29;;;;;;;66.50;3.30;;;19.30;1.00;;;;;;5062039;28;20399;-83
2022/09/02 01:22:57;;;;;;;65.77;3.23;;;19.30;1.00;;;;;;5045365;28;20999;-83
2022/09/02 01:25:26;;;;;;;65.10;2.60;;;19.20;1.00;;;;;;5080236;28;20404;-83
2022/09/02 01:27:52;;;;;;;66.23;3.13;;;19.20;1.00;;;;;;5062187;28;20967;-83
2022/09/02 01:30:24;;;;;;;65.73;2.93;;;19.00;1.00;;;;;;5062902;28;20426;-83
2022/09/02 01:32:50;;;;;;;65.17;3.07;;;19.00;1.00;;;;;;5062453;28;20903;-83
2022/09/02 01:35:16;;;;;;;66.60;3.10;;;18.90;1.00;;;;;;5081090;28;20448;-83
2022/09/02 01:37:43;;;;;;;65.17;2.77;;;18.90;1.00;;;;;;5062636;28;20222;-83
2022/09/02 01:40:14;;;;;;;67.07;3.07;;;18.90;1.00;;;;;;5081460;28;20449;-83
2022/09/02 01:42:41;;;;;;;66.10;2.90;;;18.80;1.00;;;;;;5063224;28;20767;-83
2022/09/02 01:45:08;;;;;;;71.10;2.70;;;18.80;1.00;;;;;;5080179;28;20398;-83
2022/09/02 01:47:35;;;;;;;66.00;2.80;;;18.80;1.00;;;;;;5084962;28;20539;-83
2022/09/02 01:50:01;;;;;;;66.40;3.00;;;18.80;1.00;;;;;;5084942;28;20399;-83
2022/09/02 01:54:54;;;;;;;67.67;2.83;;;18.70;1.00;;;;;;5126635;22;20486;-82
2022/09/02 01:57:23;;;;;;;67.47;4.17;;;18.80;1.00;;;;;;5062873;28;20450;-83
2022/09/02 01:59:52;;;;;;;67.97;2.80;;;18.80;1.00;;;;;;5045534;28;20419;-82
2022/09/02 02:02:19;;;;;;;65.20;2.70;;;18.80;1.00;;;;;;5045582;28;20419;-82
2022/09/02 02:04:46;;;;;;;66.47;3.40;;;18.80;1.00;;;;;;5044229;28;20409;-83
2022/09/02 02:07:16;;;;;;;65.60;2.87;;;18.80;1.00;;;;;;5062030;28;20456;-83
2022/09/02 02:09:42;;;;;;;65.30;2.77;;;18.70;1.00;;;;;;5061586;28;20392;-83
2022/09/02 02:12:09;;;;;;;66.80;3.27;;;18.70;1.00;;;;;;5061047;28;20399;-83
2022/09/02 02:14:35;;;;;;;67.10;3.13;;;18.60;1.00;;;;;;5061252;28;20886;-83
2022/09/02 02:17:01;;;;;;;72.63;3.00;;;18.70;1.00;;;;;;5061060;28;20915;-83
2022/09/02 02:19:27;;;;;;;65.70;3.00;;;18.70;1.00;;;;;;5061414;28;20410;-82
2022/09/02 02:21:53;;;;;;;67.53;3.17;;;18.60;1.00;;;;;;5043564;28;20644;-83
2022/09/02 02:24:18;;;;;;;65.63;2.67;;;18.50;1.00;;;;;;5061058;28;20399;-83
2022/09/02 02:26:45;;;;;;;65.97;2.70;;;18.50;1.00;;;;;;5061536;28;20510;-82
2022/09/02 02:29:12;;;;;;;66.70;2.93;;;18.50;1.00;;;;;;5043865;28;20180;-82
2022/09/02 02:31:38;;;;;;;65.47;2.87;;;18.50;1.00;;;;;;5061238;28;20403;-82
2022/09/02 02:34:04;;;;;;;67.70;3.67;;;18.50;1.00;;;;;;5060730;28;20767;-82
2022/09/02 02:36:30;;;;;;;66.77;2.90;;;18.50;1.00;;;;;;5043785;28;20431;-82
2022/09/02 02:38:56;;;;;;;66.50;2.70;;;18.60;1.00;;;;;;5043295;28;20250;-83
2022/09/02 02:41:22;;;;;;;66.00;3.00;;;18.80;1.00;;;;;;5061006;28;20419;-83
2022/09/02 02:43:47;;;;;;;65.77;2.70;;;18.70;1.00;;;;;;5060876;28;20183;-82
2022/09/02 02:46:14;;;;;;;68.10;3.00;;;18.60;1.00;;;;;;5060138;28;20160;-82
2022/09/02 02:48:41;;;;;;;65.60;2.97;;;18.60;1.00;;;;;;5042148;28;20458;-82
2022/09/02 02:51:08;;;;;;;65.40;3.00;;;18.60;1.00;;;;;;5061512;28;20404;-83
2022/09/02 02:53:35;;;;;;;65.27;2.70;;;18.60;1.00;;;;;;5059984;28;20482;-83
2022/09/02 02:56:02;;;;;;;65.83;2.90;;;18.60;1.00;;;;;;5127576;22;20435;-84
2022/09/02 02:58:31;;;;;;;66.03;3.10;;;18.70;1.00;;;;;;5079782;28;20490;-85
2022/09/02 03:00:57;;;;;;;66.67;2.97;;;18.80;1.00;;;;;;5081977;28;20467;-85
2022/09/02 03:03:23;;;;;;;66.07;2.73;;;18.80;1.00;;;;;;5081401;28;20437;-85
2022/09/02 03:05:50;;;;;;;67.50;3.13;;;18.80;1.00;;;;;;5064029;28;20782;-84
2022/09/02 03:08:20;;;;;;;65.90;2.63;;;18.70;1.00;;;;;;5081621;28;20437;-84
2022/09/02 03:10:50;;;;;;;65.77;3.43;;;18.70;1.00;;;;;;5064273;28;20403;-84
2022/09/02 03:13:16;;;;;;;67.20;3.27;;;18.60;1.00;;;;;;5082223;28;20387;-84
2022/09/02 03:15:42;;;;;;;65.60;2.73;;;18.70;1.00;;;;;;5081969;28;20398;-84
2022/09/02 03:18:08;;;;;;;66.00;3.30;;;18.60;1.00;;;;;;5064541;28;20451;-84
2022/09/02 03:20:34;;;;;;;69.70;3.30;;;18.50;1.00;;;;;;5082015;28;20177;-84
2022/09/02 03:23:02;;;;;;;67.57;3.50;;;18.50;1.00;;;;;;5064355;28;20414;-84
2022/09/02 03:25:29;;;;;;;64.90;2.80;;;18.50;1.00;;;;;;5064672;28;20418;-84
2022/09/02 03:27:55;;;;;;;66.37;2.97;;;18.60;1.00;;;;;;5082434;28;20826;-85
2022/09/02 03:30:24;;;;;;;68.70;3.60;;;18.70;1.00;;;;;;5063371;28;20535;-83
2022/09/02 03:32:51;;;;;;;67.50;3.73;;;18.70;1.00;;;;;;5064610;28;20415;-84
2022/09/02 03:35:19;;;;;;;66.40;3.90;;;18.60;1.00;;;;;;5083202;28;20403;-84
2022/09/02 03:37:45;;;;;;;66.80;3.50;;;18.50;1.00;;;;;;5082466;28;20446;-85
2022/09/02 03:40:15;;;;;;;67.73;4.03;;;18.60;1.00;;;;;;5062043;28;20747;-85
2022/09/02 03:42:41;;;;;;;66.50;3.80;;;18.60;1.00;;;;;;5079701;28;20450;-84
2022/09/02 03:45:08;;;;;;;65.87;3.70;;;18.70;1.00;;;;;;5061457;28;20827;-85
2022/09/02 03:47:34;;;;;;;66.97;3.60;;;18.60;1.00;;;;;;5079727;28;20251;-85
2022/09/02 03:50:01;;;;;;;66.87;3.90;;;18.60;1.00;;;;;;5080201;28;20406;-85
2022/09/02 03:52:28;;;;;;;67.23;4.80;;;18.70;1.00;;;;;;5080005;28;20403;-85
2022/09/02 03:54:54;;;;;;;70.40;5.20;;;18.70;1.00;;;;;;5079631;28;20398;-85
2022/09/02 03:57:21;;;;;;;67.27;3.60;;;18.70;1.00;;;;;;5079560;28;21043;-85
2022/09/02 03:59:47;;;;;;;66.43;3.67;;;18.70;1.00;;;;;;5079404;28;20402;-84
2022/09/02 04:02:13;;;;;;;67.77;4.20;;;18.70;1.00;;;;;;5080602;28;20409;-85
2022/09/02 04:04:41;;;;;;;66.70;3.57;;;18.70;1.00;;;;;;5062123;28;20434;-85
2022/09/02 04:07:07;;;;;;;66.17;3.63;;;18.60;1.00;;;;;;5062828;28;20462;-84
2022/09/02 04:09:35;;;;;;;68.27;4.60;;;18.50;1.00;;;;;;5079765;28;20395;-85
2022/09/02 04:12:03;;;;;;;67.30;4.07;;;18.50;1.00;;;;;;5062109;28;20190;-84
2022/09/02 04:14:30;;;;;;;66.13;4.07;;;18.50;1.00;;;;;;5079261;28;20414;-85
2022/09/02 04:16:55;;;;;;;68.60;5.37;;;18.50;1.00;;;;;;5078879;28;20414;-84
2022/09/02 04:19:21;;;;;;;66.87;4.57;;;18.50;1.00;;;;;;5079081;28;20926;-84
2022/09/02 04:21:47;;;;;;;66.60;4.07;;;18.50;1.00;;;;;;5079346;28;20218;-85
2022/09/02 04:24:13;;;;;;;68.57;4.40;;;18.50;1.00;;;;;;5061419;28;20487;-84
2022/09/02 04:26:39;;;;;;;66.87;4.40;;;18.40;1.00;;;;;;5079025;28;20187;-84
2022/09/02 04:29:06;;;;;;;66.10;4.10;;;18.40;1.00;;;;;;5080343;28;20935;-84
2022/09/02 04:31:32;;;;;;;67.80;4.40;;;18.30;1.00;;;;;;5079785;28;20413;-85
2022/09/02 04:33:59;;;;;;;66.10;4.30;;;18.30;1.00;;;;;;5149706;22;20486;-82
2022/09/02 04:36:26;;;;;;;69.20;4.60;;;18.30;1.00;;;;;;5075127;28;20390;-82
2022/09/02 04:38:52;;;;;;;67.87;5.07;;;18.30;1.00;;;;;;5056735;28;20813;-82
2022/09/02 04:41:23;;;;;;;67.37;4.60;;;18.30;1.00;;;;;;5074873;28;20402;-82
2022/09/02 04:43:51;;;;;;;66.67;4.17;;;18.30;1.00;;;;;;5056358;28;20390;-82
2022/09/02 04:46:18;;;;;;;67.93;4.97;;;18.40;1.00;;;;;;5074748;28;20787;-82
2022/09/02 04:48:46;;;;;;;68.50;4.87;;;18.30;1.00;;;;;;5074771;28;20410;-81
2022/09/02 04:51:15;;;;;;;66.80;5.37;;;18.20;1.00;;;;;;5074677;28;20623;-81
2022/09/02 04:53:43;;;;;;;67.87;4.70;;;18.10;1.00;;;;;;5056692;28;20767;-81
2022/09/02 04:56:11;;;;;;;66.23;4.67;;;18.00;1.00;;;;;;5074170;28;20410;-81
2022/09/02 04:58:37;;;;;;;67.10;4.37;;;18.00;1.00;;;;;;5056153;28;20472;-81
2022/09/02 05:01:13;;;;;;;66.60;4.70;;;17.90;1.00;;;;;;5074376;28;20848;-82
2022/09/02 05:03:40;;;;;;;68.10;5.00;;;17.70;1.00;;;;;;5074598;28;20382;-81
2022/09/02 05:06:08;;;;;;;67.37;5.57;;;17.70;1.00;;;;;;5074349;28;20405;-81
2022/09/02 05:08:37;;;;;;;68.33;5.17;;;17.80;1.00;;;;;;5074197;28;21037;-82
2022/09/02 05:11:12;;;;;;;66.87;5.10;;;17.80;1.00;;;;;;5073985;28;20407;-82
2022/09/02 05:13:38;;;;;;;67.40;5.87;;;17.80;1.00;;;;;;5056726;28;20786;-82
2022/09/02 05:16:05;;;;;;;66.20;4.67;;;17.80;1.00;;;;;;5056818;28;20952;-81
2022/09/02 05:18:30;;;;;;;67.43;5.40;;;17.80;1.00;;;;;;5056446;28;20441;-82
2022/09/02 05:20:56;;;;;;;67.63;6.13;;;17.70;1.00;;;;;;5075229;28;20540;-81
2022/09/02 05:23:22;;;;;;;69.17;5.60;;;17.80;1.00;;;;;;5060256;28;20172;-82
2022/09/02 05:25:48;;;;;;;67.80;5.30;;;17.80;1.00;;;;;;5078721;28;20194;-82
2022/09/02 05:28:13;;;;;;;66.87;4.70;;;17.90;1.00;;;;;;5077464;28;20230;-82
2022/09/02 05:30:40;;;;;;;71.40;5.70;;;17.90;1.00;;;;;;5078202;28;20237;-82
2022/09/02 05:33:07;;;;;;;67.33;5.00;;;17.80;1.00;;;;;;5077815;28;20639;-82
2022/09/02 05:35:33;;;;;;;66.17;4.90;;;17.90;1.00;;;;;;5078722;28;20860;-81
2022/09/02 05:37:59;;;;;;;66.90;4.73;;;17.90;1.00;;;;;;5077792;28;20492;-82
2022/09/02 05:40:25;;;;;;;66.97;4.90;;;17.80;1.00;;;;;;5077664;28;20394;-82
2022/09/02 05:42:51;;;;;;;67.67;5.20;;;17.80;1.00;;;;;;5059554;28;20587;-81
2022/09/02 05:45:17;;;;;;;66.27;5.37;;;17.90;1.00;;;;;;5077459;28;20399;-82
2022/09/02 05:47:43;;;;;;;68.27;5.30;;;17.90;1.00;;;;;;5077131;28;20436;-82
2022/09/02 05:50:09;;;;;;;71.93;5.77;;;17.90;1.00;;;;;;5077258;28;20410;-81
2022/09/02 05:52:35;;;;;;;67.70;5.60;;;17.90;1.00;;;;;;5077391;28;20616;-81
2022/09/02 05:55:02;;;;;;;70.10;5.40;;;17.80;1.00;;;;;;5059422;28;20176;-81
2022/09/02 05:57:28;;;;;;;66.63;4.87;;;17.90;1.00;;;;;;5077027;28;20192;-82
2022/09/02 05:59:55;;;;;;;66.87;4.40;;;18.00;1.00;;;;;;5077562;28;20757;-81
2022/09/02 06:02:23;;;;;;;66.97;5.10;;;18.00;1.00;;;;;;5077475;28;20971;-81
2022/09/02 06:04:52;;;;;;;66.80;4.47;;;18.10;1.00;;;;;;5076979;28;20402;-81
2022/09/02 06:07:20;;;;;;;67.30;5.17;;;18.10;1.00;;;;;;5058760;28;20457;-82
2022/09/02 06:09:46;;;;;;;75.03;4.70;;;18.20;1.00;;;;;;5077758;28;20390;-82
2022/09/02 06:12:13;;;;;;;68.87;5.60;;;18.20;1.00;;;;;;5077278;28;20410;-82
2022/09/02 06:14:41;;;;;;;66.07;5.10;;;18.20;1.00;;;;;;5059249;28;20430;-81
2022/09/02 06:17:07;;;;;;;67.10;4.73;;;18.40;1.00;;;;;;5058979;28;20434;-82
2022/09/02 06:19:33;;;;;;;67.00;4.43;;;18.30;1.00;;;;;;5077305;28;20910;-82
2022/09/02 06:22:03;;;;;;;66.57;4.40;;;18.30;1.00;;;;;;5077089;28;20402;-81
2022/09/02 06:24:29;;;;;;;67.10;5.07;;;18.30;1.00;;;;;;5076528;28;20200;-81
2022/09/02 06:26:58;;;;;;;70.53;4.90;;;18.30;1.00;;;;;;5076790;28;20451;-82
2022/09/02 06:29:25;;;;;;;71.40;4.70;;;18.50;1.00;;;;;;5077138;28;20746;-82
2022/09/02 06:31:52;;;;;;;73.43;4.83;;;18.50;1.00;;;;;;5076408;28;20426;-81
2022/09/02 06:34:19;;;;;;;66.90;4.87;;;18.50;1.00;;;;;;5075785;28;20509;-82
2022/09/02 06:36:47;;;;;;;68.47;4.30;;;18.50;1.00;;;;;;5057949;28;20437;-81
2022/09/02 06:39:15;;;;;;;66.37;4.47;;;18.60;1.00;;;;;;5058634;28;20862;-82
2022/09/02 06:41:42;;;;;;;69.20;4.50;;;18.60;1.00;;;;;;5075940;28;20769;-81
2022/09/02 06:44:10;;;;;;;67.13;4.27;;;18.70;1.00;;;;;;5076035;28;20386;-81
2022/09/02 06:46:39;;;;;;;66.90;5.10;;;18.70;1.00;;;;;;5058132;28;20433;-81
2022/09/02 06:49:07;;;;;;;68.97;4.80;;;18.70;1.00;;;;;;5076088;28;20918;-81
2022/09/02 06:51:36;;;;;;;67.27;4.67;;;18.80;1.00;;;;;;5058077;28;20770;-81
2022/09/02 06:54:05;;;;;;;68.17;4.97;;;18.70;1.00;;;;;;5076297;28;20946;-81
2022/09/02 06:56:30;;;;;;;67.50;5.43;;;18.60;1.00;;;;;;5075997;28;20429;-81
2022/09/02 06:58:56;;;;;;;69.63;4.23;;;18.60;1.00;;;;;;5075931;28;20809;-81
2022/09/02 07:01:28;;;;;;;67.20;4.90;;;18.80;1.00;;;;;;5075647;28;20161;-81
2022/09/02 07:06:42;;;;;;;72.87;4.17;;;19.00;1.00;;;;;;5075878;28;20417;-81
2022/09/02 07:09:10;;;;;;;70.97;4.17;;;18.90;1.00;;;;;;5058202;28;20406;-81
2022/09/02 07:11:37;;;;;;;66.40;3.60;;;19.00;1.00;;;;;;5075433;28;20405;-80
2022/09/02 07:14:03;;;;;;;76.40;4.80;;;19.10;1.00;;;;;;5075898;28;20423;-81
2022/09/02 07:16:32;;;;;;;66.90;4.53;;;19.00;1.00;;;;;;5075522;28;20430;-80
2022/09/02 07:19:00;;;;;;;67.17;4.30;;;18.90;1.00;;;;;;5075430;28;20442;-81
2022/09/02 07:21:29;;;;;;;67.40;4.20;;;18.90;1.00;;;;;;5057616;28;20419;-81
2022/09/02 07:23:58;;;;;;;66.70;4.50;;;18.90;1.00;;;;;;5057489;28;20407;-80
2022/09/02 07:26:24;;;;;;;68.13;4.60;;;18.90;1.00;;;;;;5075391;28;20515;-81
2022/09/02 07:28:50;;;;;;;69.83;4.87;;;19.00;1.00;;;;;;5075799;28;20412;-81
2022/09/02 07:31:16;;;;;;;68.80;4.40;;;19.10;1.00;;;;;;5076581;28;20404;-82
2022/09/02 07:33:46;;;;;;;67.47;4.20;;;19.10;1.00;;;;;;5076641;28;20301;-82
2022/09/02 07:36:13;;;;;;;66.63;4.30;;;19.30;1.00;;;;;;5076685;28;20532;-81
2022/09/02 07:38:41;;;;;;;65.77;3.80;;;19.30;1.00;;;;;;5076611;28;20454;-82
2022/09/02 07:41:08;;;;;;;69.47;4.83;;;19.40;1.00;;;;;;5060239;28;20417;-82
2022/09/02 07:43:35;;;;;;;67.20;4.00;;;19.40;1.00;;;;;;5076418;28;20399;-82
2022/09/02 07:46:02;;;;;;;68.37;4.20;;;19.40;1.00;;;;;;5076557;28;20427;-82
2022/09/02 07:48:29;;;;;;;67.77;4.77;;;19.40;1.00;;;;;;5059325;28;20430;-82
2022/09/02 07:50:55;;;;;;;66.07;3.90;;;19.40;1.00;;;;;;5076377;28;20485;-82
2022/09/02 07:53:21;;;;;;;67.93;4.50;;;19.40;1.00;;;;;;5076187;28;20402;-82
2022/09/02 07:55:48;;;;;;;66.87;4.00;;;19.40;1.00;;;;;;5076541;28;20457;-82
2022/09/02 07:58:15;;;;;;;66.10;3.83;;;19.50;1.00;;;;;;5076096;28;20522;-82
2022/09/02 08:00:42;;;;;;;67.83;4.20;;;19.50;1.00;;;;;;5057945;28;20406;-82
2022/09/02 08:03:09;;;;;;;68.70;4.17;;;19.60;1.00;;;;;;5058737;28;20407;-83
2022/09/02 08:05:35;;;;;;;66.97;3.67;;;19.70;1.00;;;;;;5075635;28;20836;-82
2022/09/02 08:08:02;;;;;;;68.20;3.47;;;19.80;1.00;;;;;;5058897;28;20434;-82
2022/09/02 08:10:28;;;;;;;66.50;3.60;;;19.90;1.00;;;;;;5076278;28;20417;-83
2022/09/02 08:12:56;;;;;;;68.47;3.50;;;20.00;1.00;;;;;;5076832;28;20407;-83
2022/09/02 08:15:26;;;;;;;68.73;3.90;;;20.00;1.00;;;;;;5075652;28;20838;-82
2022/09/02 08:17:52;;;;;;;68.30;3.20;;;20.00;1.00;;;;;;5075705;28;20532;-82
2022/09/02 08:20:18;;;;;;;66.90;4.10;;;20.10;1.00;;;;;;5075790;28;20436;-82
2022/09/02 08:22:43;;;;;;;68.27;3.57;;;20.10;1.00;;;;;;5075696;28;20162;-82
2022/09/02 08:25:10;;;;;;;66.20;3.30;;;20.20;1.00;;;;;;5076343;28;20516;-82
2022/09/02 08:27:36;;;;;;;66.40;3.67;;;20.20;1.00;;;;;;5075795;28;20184;-83
2022/09/02 08:30:04;;;;;;;67.10;3.50;;;20.30;1.00;;;;;;5076206;28;20454;-82
2022/09/02 08:32:31;;;;;;;66.67;3.10;;;20.30;1.00;;;;;;5057766;28;20739;-81
2022/09/02 08:35:01;;;;;;;66.57;3.30;;;20.40;1.00;;;;;;5074158;28;20421;-82
2022/09/02 08:37:28;;;;;;;67.40;3.37;;;20.50;1.00;;;;;;5074242;28;20445;-81
2022/09/02 08:39:53;;;;;;;66.37;2.73;;;20.60;1.00;;;;;;5074217;28;20403;-81
2022/09/02 08:42:30;;;;;;;67.13;3.20;;;20.70;1.00;;;;;;5074111;28;20792;-81
2022/09/02 08:45:05;;;;;;;66.50;3.20;;;20.70;1.00;;;;;;5056578;28;20530;-81
2022/09/02 08:47:34;;;;;;;66.90;3.30;;;20.80;1.00;;;;;;5074247;28;20964;-81
2022/09/02 08:50:12;;;;;;;68.53;3.10;;;20.80;1.00;;;;;;5074846;28;20410;-81
2022/09/02 08:53:07;;;;;;;67.27;3.40;;;20.90;1.00;;;;;;5075090;28;20389;-82
2022/09/02 08:55:44;;;;;;;66.10;3.30;;;21.00;1.00;;;;;;5074907;28;20404;-82
2022/09/02 08:58:16;;;;;;;66.53;3.17;;;21.20;1.00;;;;;;5078941;28;20514;-82
2022/09/02 09:00:43;;;;;;;71.50;3.03;;;21.20;1.00;;;;;;5079538;28;20367;-81
2022/09/02 09:03:29;;;;;;;66.77;4.00;;;21.30;1.00;;;;;;5079713;28;20409;-82
2022/09/02 09:06:13;;;;;;;69.83;3.90;;;21.30;1.00;;;;;;5060988;28;20978;-82
2022/09/02 09:09:09;;;;;;;65.90;3.70;;;21.30;1.00;;;;;;5063416;28;20794;-82
2022/09/02 09:11:54;;;;;;;65.57;3.30;;;21.40;1.00;;;;;;5078969;28;20394;-81
2022/09/02 09:14:32;;;;;;;66.60;3.67;;;21.40;1.00;;;;;;5080075;28;20383;-81
2022/09/02 09:17:03;;;;;;;67.00;3.70;;;21.50;1.00;;;;;;5080072;28;20781;-82
2022/09/02 09:19:36;;;;;;;67.67;3.70;;;21.70;1.00;;;;;;5080161;28;20421;-82
2022/09/02 09:22:02;;;;;;;69.10;3.40;;;21.90;1.00;;;;;;5060788;28;20486;-81
2022/09/02 09:24:37;;;;;;;66.50;3.60;;;21.90;1.00;;;;;;5061231;28;20438;-81
2022/09/02 09:27:13;;;;;;;65.17;2.80;;;22.10;1.00;;;;;;5078314;28;20186;-81
2022/09/02 09:29:38;;;;;;;65.50;3.17;;;22.20;1.00;;;;;;5079049;28;20379;-82
2022/09/02 09:32:11;;;;;;;65.47;2.90;;;22.40;1.00;;;;;;5061686;28;20414;-81
2022/09/02 09:34:52;;;;;;;68.43;2.80;;;22.50;1.00;;;;;;5079593;28;20176;-82
2022/09/02 09:37:30;;;;;;;65.33;2.67;;;22.60;1.00;;;;;;5079486;28;20444;-82
2022/09/02 09:39:56;;;;;;;66.10;3.20;;;22.70;1.00;;;;;;5080080;28;20951;-82
2022/09/02 09:42:36;;;;;;;65.27;2.70;;;22.80;1.00;;;;;;5079252;28;20394;-82
2022/09/02 09:45:24;;;;;;;67.30;3.23;;;22.90;1.00;;;;;;5059875;28;21015;-81
2022/09/02 09:48:15;;;;;;;67.67;2.80;;;22.90;1.00;;;;;;5077591;28;20828;-80
2022/09/02 09:50:41;;;;;;;67.70;3.67;;;23.10;1.00;;;;;;5077417;28;20399;-81
2022/09/02 09:53:19;;;;;;;65.27;3.10;;;23.20;1.00;;;;;;5077320;28;20405;-81
2022/09/02 09:55:57;;;;;;;66.90;3.17;;;23.30;1.00;;;;;;5077141;28;20406;-80
2022/09/02 09:58:30;;;;;;;65.20;2.90;;;23.40;1.00;;;;;;5078471;28;20975;-82
2022/09/02 10:00:59;;;;;;;67.00;3.17;;;23.40;1.00;;;;;;5080005;28;20418;-81
2022/09/02 10:03:29;;;;;;;65.33;2.70;;;23.50;1.00;;;;;;5060092;28;20466;-82
2022/09/02 10:05:57;;;;;;;65.17;2.50;;;23.80;1.00;;;;;;5060260;28;20406;-81
2022/09/02 10:08:26;;;;;;;65.77;2.93;;;23.80;1.00;;;;;;5077174;28;20473;-81
2022/09/02 10:11:05;;;;;;;69.00;3.13;;;24.00;1.00;;;;;;5077972;28;20434;-82
2022/09/02 10:13:32;;;;;;;66.27;2.70;;;24.20;1.00;;;;;;5078104;28;20406;-81
2022/09/02 10:16:07;;;;;;;71.80;2.50;;;24.30;1.00;;;;;;5079012;28;20603;-82
2022/09/02 10:18:57;;;;;;;65.37;2.63;;;24.30;1.00;;;;;;5077914;28;20453;-82
2022/09/02 10:21:33;;;;;;;66.27;2.90;;;24.00;1.00;;;;;;5078288;28;20395;-81
2022/09/02 10:24:14;;;;;;;70.90;3.47;;;24.20;1.00;;;;;;5078186;28;20481;-81
2022/09/02 10:26:52;;;;;;;65.90;2.73;;;24.40;1.00;;;;;;5078116;28;20437;-81
2022/09/02 10:29:45;;;;;;;68.10;2.50;;;24.60;1.00;;;;;;5078345;28;20886;-81
2022/09/02 10:32:11;;;;;;;65.27;2.50;;;24.80;1.00;;;;;;5078361;28;20386;-81
2022/09/02 10:34:47;;;;;;;70.30;3.13;;;24.80;1.00;;;;;;5131664;22;20491;-81
2022/09/02 10:37:34;;;;;;;67.27;2.50;;;24.90;1.00;;;;;;5077636;28;20192;-81
2022/09/02 10:40:07;;;;;;;65.63;3.17;;;25.30;1.00;;;;;;5059303;28;20405;-82
2022/09/02 10:43:08;;;;;;;67.67;3.23;;;25.50;1.00;;;;;;5059442;28;20413;-81
2022/09/02 10:45:55;;;;;;;67.27;3.47;;;25.60;1.00;;;;;;5078308;28;20410;-81
2022/09/02 10:48:36;;;;;;;65.77;2.90;;;25.50;1.00;;;;;;5077751;28;20465;-81
2022/09/02 10:51:39;;;;;;;76.03;3.13;;;25.50;1.00;;;;;;5077309;28;20516;-81
2022/09/02 10:54:09;;;;;;;66.00;2.20;;;25.50;1.00;;;;;;5037119;28;20746;-81
2022/09/02 10:56:49;;;;;;;73.20;2.30;;;25.70;1.00;;;;;;5059066;28;20434;-81
2022/09/02 10:59:48;;;;;;;65.83;2.20;;;26.20;1.00;;;;;;5058925;28;20433;-82
2022/09/02 11:02:28;;;;;;;66.47;2.23;;;26.60;1.00;;;;;;5077295;28;20386;-81
2022/09/02 11:05:03;;;;;;;65.93;2.20;;;26.70;1.00;;;;;;5077227;28;20366;-82
2022/09/02 11:08:00;;;;;;;67.47;2.47;;;26.70;1.00;;;;;;5077436;28;20434;-81
2022/09/02 11:10:29;;;;;;;67.53;2.60;;;27.00;1.00;;;;;;5076670;28;20432;-81
2022/09/02 11:13:23;;;;;;;67.20;2.13;;;27.10;1.00;;;;;;5076590;28;20429;-81
2022/09/02 11:16:14;;;;;;;67.83;2.43;;;27.10;1.00;;;;;;5077027;28;20878;-82
2022/09/02 11:19:08;;;;;;;66.43;2.80;;;27.00;1.00;;;;;;5076487;28;20467;-81
2022/09/02 11:21:48;;;;;;;65.43;2.23;;;26.70;1.00;;;;;;5076480;28;20412;-81
2022/09/02 11:24:29;;;;;;;66.37;2.37;;;26.50;1.00;;;;;;5076566;28;20370;-81
2022/09/02 11:27:10;;;;;;;67.70;2.33;;;26.40;1.00;;;;;;5075746;28;20410;-80
2022/09/02 11:30:04;;;;;;;65.93;2.20;;;26.30;1.00;;;;;;5057902;28;20398;-80
2022/09/02 11:33:18;;;;;;;65.90;2.17;;;26.20;1.00;;;;;;5075860;28;20955;-81
2022/09/02 11:35:44;;;;;;;65.70;2.50;;;26.50;1.00;;;;;;5013339;28;20420;-80
2022/09/02 11:38:14;;;;;;;67.80;2.30;;;26.90;1.00;;;;;;5013537;28;20479;-80
2022/09/02 11:41:03;;;;;;;66.40;2.00;;;27.10;1.00;;;;;;5030481;28;20498;-81
2022/09/02 11:43:44;;;;;;;65.57;2.10;;;27.10;1.00;;;;;;5075467;28;20413;-80
2022/09/02 11:46:29;;;;;;;65.37;2.00;;;26.90;1.00;;;;;;5057240;28;20406;-79
2022/09/02 11:49:30;;;;;;;65.70;2.13;;;26.90;1.00;;;;;;5057285;28;20425;-81
2022/09/02 11:52:20;;;;;;;70.00;2.20;;;27.20;1.00;;;;;;5074987;28;20478;-81
2022/09/02 11:54:51;;;;;;;66.57;2.30;;;27.60;1.00;;;;;;5075661;28;20432;-81
2022/09/02 11:57:24;;;;;;;67.17;2.40;;;27.30;1.00;;;;;;5075059;28;20414;-81
2022/09/02 11:59:50;;;;;;;65.77;2.00;;;27.10;1.00;;;;;;5057531;28;20421;-81
2022/09/02 12:02:31;;;;;;;66.37;2.13;;;26.90;1.00;;;;;;5075188;28;20394;-80
2022/09/02 12:05:28;;;;;;;66.97;1.90;;;26.50;1.00;;;;;;5075092;28;20168;-80
2022/09/02 12:08:12;;;;;;;66.27;2.30;;;26.70;1.00;;;;;;5041225;28;20801;-81
2022/09/02 12:10:48;;;;;;;68.87;2.47;;;27.00;1.00;;;;;;5074705;28;20406;-81
2022/09/02 12:13:40;;;;;;;67.10;2.10;;;27.10;1.00;;;;;;5057079;28;20820;-81
2022/09/02 12:16:15;;;;;;;66.10;2.27;;;27.10;1.00;;;;;;5057041;28;20887;-81
2022/09/02 12:18:57;;;;;;;65.70;2.40;;;27.30;1.00;;;;;;5074667;28;20445;-80
2022/09/02 12:21:27;;;;;;;66.30;2.37;;;27.40;1.00;;;;;;5075186;28;20386;-80
2022/09/02 12:23:55;;;;;;;68.30;2.93;;;27.50;1.00;;;;;;5074757;28;20391;-81
2022/09/02 12:26:28;;;;;;;66.20;2.70;;;27.60;1.00;;;;;;5074614;28;20398;-80
2022/09/02 12:29:19;;;;;;;65.97;2.30;;;27.70;1.00;;;;;;5074720;28;20761;-81
2022/09/02 12:31:46;;;;;;;66.50;2.70;;;27.70;1.00;;;;;;5074595;28;20485;-80
2022/09/02 12:34:24;;;;;;;66.80;2.50;;;27.60;1.00;;;;;;5056457;28;21011;-80
2022/09/02 12:36:53;;;;;;;67.37;2.60;;;27.60;1.00;;;;;;5074829;28;20426;-81
2022/09/02 12:39:26;;;;;;;66.57;2.20;;;27.60;1.00;;;;;;5074853;28;20449;-80
2022/09/02 12:42:07;;;;;;;66.40;2.77;;;27.80;1.00;;;;;;5056645;28;20798;-80
2022/09/02 12:45:02;;;;;;;66.60;2.40;;;27.90;1.00;;;;;;5074485;28;20409;-80
2022/09/02 12:47:39;;;;;;;68.40;2.90;;;28.00;1.00;;;;;;5074420;28;20418;-81
2022/09/02 12:50:34;;;;;;;66.27;2.37;;;27.90;1.00;;;;;;5074292;28;20448;-81
2022/09/02 12:53:23;;;;;;;66.80;2.50;;;27.80;1.00;;;;;;5074883;28;20822;-81
2022/09/02 12:55:55;;;;;;;65.77;2.20;;;27.60;1.00;;;;;;5075212;28;20391;-81
2022/09/02 12:58:21;;;;;;;72.13;2.60;;;27.70;1.00;;;;;;5075482;28;20571;-81
2022/09/02 13:01:05;;;;;;;67.50;2.53;;;28.00;1.00;;;;;;5075076;28;20410;-81
2022/09/02 13:03:42;;;;;;;66.77;2.33;;;28.20;1.00;;;;;;5075763;28;20814;-81
2022/09/02 13:06:25;;;;;;;68.37;2.37;;;28.10;1.00;;;;;;5075574;28;20833;-81
2022/09/02 13:09:09;;;;;;;65.97;2.07;;;27.90;1.00;;;;;;5075661;28;20378;-81
2022/09/02 13:11:53;;;;;;;68.90;2.57;;;27.90;1.00;;;;;;5074968;28;20413;-82
2022/09/02 13:14:41;;;;;;;66.83;2.57;;;27.90;1.00;;;;;;5075362;28;20382;-82